Time;durP1;ratioP1;P1;durP2;ratioP2;P2;SDS_P1;SDS_P2;PMS_P1;PMS_P2;Temp;Humidity;BMP_temperature;BMP_pressure;BME280_temperature;BME280_humidity;BME280_pressure;Samples;Min_cycle;Max_cycle;Signal;HPM_P1;HPM_P2
2022/01/29 00:01:59;;;;;;;11.23;4.25;;;;;;;2.14;80.54;102097.53;5025870;28;20109;-21
2022/01/29 00:04:24;;;;;;;9.73;3.85;;;;;;;2.13;80.63;102090.53;5027539;28;20025;-21
2022/01/29 00:06:50;;;;;;;12.88;3.92;;;;;;;2.12;80.82;102100.03;5026808;28;20726;-21
2022/01/29 00:09:16;;;;;;;10.50;3.90;;;;;;;2.11;80.72;102106.06;5022990;28;20064;-21
2022/01/29 00:11:42;;;;;;;7.63;3.72;;;;;;;2.11;80.96;102087.84;5026747;28;20021;-21
2022/01/29 00:14:07;;;;;;;7.88;3.72;;;;;;;2.09;80.83;102086.88;5027208;28;20071;-23
2022/01/29 00:16:33;;;;;;;8.52;3.85;;;;;;;2.09;80.66;102078.16;5026454;28;20037;-21
2022/01/29 00:18:59;;;;;;;9.38;4.72;;;;;;;2.08;80.81;102078.97;5022238;28;20481;-22
2022/01/29 00:21:24;;;;;;;14.38;4.03;;;;;;;2.08;80.99;102081.59;5024282;28;20098;-24
2022/01/29 00:23:50;;;;;;;19.42;5.32;;;;;;;2.08;80.66;102082.50;5026363;28;20112;-21
2022/01/29 00:26:20;;;;;;;9.85;4.10;;;;;;;2.07;80.93;102074.59;5026151;28;20025;-21
2022/01/29 00:28:45;;;;;;;14.10;4.60;;;;;;;2.07;80.64;102066.78;5022564;28;20103;-21
2022/01/29 00:31:11;;;;;;;13.88;4.30;;;;;;;2.07;80.71;102059.00;5024000;28;20490;-21
2022/01/29 00:33:38;;;;;;;13.68;4.38;;;;;;;2.08;80.34;102060.75;5020382;28;20439;-22
2022/01/29 00:36:04;;;;;;;13.65;4.53;;;;;;;2.08;80.65;102060.75;5020193;28;20421;-21
2022/01/29 00:38:29;;;;;;;16.23;5.85;;;;;;;2.08;80.39;102061.66;5023071;28;20100;-23
2022/01/29 00:40:55;;;;;;;13.77;5.68;;;;;;;2.09;80.66;102062.53;5024785;28;20120;-21
2022/01/29 00:43:21;;;;;;;9.40;5.03;;;;;;;2.10;80.38;102057.41;5024267;28;20026;-22
2022/01/29 00:45:46;;;;;;;11.27;5.03;;;;;;;2.12;80.47;102068.81;5027315;28;20405;-22
2022/01/29 00:48:12;;;;;;;17.45;6.00;;;;;;;2.12;80.49;102070.50;5027358;28;20026;-21
2022/01/29 00:50:37;;;;;;;8.23;4.90;;;;;;;2.11;80.48;102077.44;5027158;28;20411;-21
2022/01/29 00:53:03;;;;;;;11.85;5.15;;;;;;;2.13;80.59;102080.13;5025014;28;20080;-22
2022/01/29 00:55:28;;;;;;;16.35;5.28;;;;;;;2.13;80.66;102075.78;5025508;28;20520;-21
2022/01/29 00:57:54;;;;;;;13.43;4.82;;;;;;;2.14;80.73;102063.69;5026410;28;20047;-23
2022/01/29 01:00:19;;;;;;;10.98;5.10;;;;;;;2.16;80.76;102065.53;5025878;28;20029;-21
2022/01/29 01:02:45;;;;;;;7.43;4.85;;;;;;;2.16;80.95;102055.13;5025143;28;20057;-23
2022/01/29 01:05:11;;;;;;;8.98;4.40;;;;;;;2.15;80.49;102058.53;5025813;28;20563;-24
2022/01/29 01:07:37;;;;;;;12.10;5.07;;;;;;;2.18;80.78;102060.41;5023059;28;20025;-21
2022/01/29 01:10:04;;;;;;;13.13;5.50;;;;;;;2.18;80.62;102048.28;5026698;28;20072;-22
2022/01/29 01:12:30;;;;;;;8.23;4.57;;;;;;;2.21;80.90;102041.44;5027062;28;20025;-22
2022/01/29 01:14:55;;;;;;;7.72;4.90;;;;;;;2.21;80.78;102033.63;5025071;28;20033;-22
2022/01/29 01:17:21;;;;;;;10.63;4.65;;;;;;;2.22;81.17;102030.19;5023741;28;20112;-22
2022/01/29 01:19:47;;;;;;;8.80;5.05;;;;;;;2.22;80.69;102027.59;5026129;28;20037;-21
2022/01/29 01:22:15;;;;;;;13.57;5.28;;;;;;;2.23;80.76;102024.19;5025866;28;20075;-24
2022/01/29 01:24:40;;;;;;;13.60;5.53;;;;;;;2.23;80.58;102021.56;5023784;28;20030;-22
2022/01/29 01:27:06;;;;;;;12.60;5.50;;;;;;;2.23;80.73;102013.78;5024674;28;20436;-25
2022/01/29 01:29:32;;;;;;;15.82;5.55;;;;;;;2.25;80.66;102001.69;5027307;28;20083;-22
2022/01/29 01:31:57;;;;;;;16.40;5.45;;;;;;;2.25;80.95;101992.19;5024770;28;20029;-21
2022/01/29 01:34:25;;;;;;;14.85;5.40;;;;;;;2.26;80.91;101990.44;5027783;28;20048;-22
2022/01/29 01:36:58;;;;;;;11.38;5.60;;;;;;;2.26;80.85;101985.25;5022233;28;20026;-21
2022/01/29 01:39:29;;;;;;;12.60;5.88;;;;;;;2.28;80.98;101986.22;5025451;28;20517;-22
2022/01/29 01:42:02;;;;;;;13.00;5.07;;;;;;;2.28;80.96;101978.41;5026215;28;20449;-23
2022/01/29 01:44:45;;;;;;;14.85;5.38;;;;;;;2.29;81.04;101967.16;5023554;28;20037;-22
2022/01/29 01:47:12;;;;;;;9.40;5.35;;;;;;;2.30;80.98;101959.44;5027398;28;20025;-22
2022/01/29 01:49:38;;;;;;;12.48;6.50;;;;;;;2.30;81.05;101950.72;5024600;28;20034;-21
2022/01/29 01:52:07;;;;;;;12.73;6.30;;;;;;;2.32;80.90;101946.47;5025647;28;20087;-21
2022/01/29 01:54:33;;;;;;;13.10;6.75;;;;;;;2.33;81.00;101953.47;5020342;28;20484;-22
2022/01/29 01:56:59;;;;;;;14.20;6.57;;;;;;;2.34;80.78;101934.44;5026153;28;20029;-22
2022/01/29 01:59:24;;;;;;;12.85;6.50;;;;;;;2.34;81.12;101931.84;5025391;28;20439;-24
2022/01/29 02:01:50;;;;;;;10.20;6.05;;;;;;;2.35;80.98;101925.78;5024346;28;20068;-22
2022/01/29 02:04:15;;;;;;;13.05;7.55;;;;;;;2.36;80.93;101911.94;5025780;28;20080;-22
2022/01/29 02:06:41;;;;;;;15.40;7.15;;;;;;;2.38;80.80;101919.84;5025475;28;20411;-22
2022/01/29 02:09:07;;;;;;;9.98;7.15;;;;;;;2.40;81.08;101923.41;5022458;28;20064;-21
2022/01/29 02:11:33;;;;;;;15.13;7.15;;;;;;;2.38;80.96;101920.72;5026346;28;20037;-23
2022/01/29 02:14:00;;;;;;;13.60;7.50;;;;;;;2.40;80.93;101908.66;5023737;28;20017;-21
2022/01/29 02:16:31;;;;;;;12.60;6.57;;;;;;;2.42;81.17;101904.41;5026031;28;20044;-26
2022/01/29 02:18:56;;;;;;;11.18;7.63;;;;;;;2.42;81.18;101896.59;5020135;28;20080;-21
2022/01/29 02:21:29;;;;;;;11.38;6.38;;;;;;;2.43;80.78;101900.97;5020537;28;20033;-21
2022/01/29 02:23:54;;;;;;;13.43;7.43;;;;;;;2.44;80.97;101892.34;5020463;28;20037;-21
2022/01/29 02:26:20;;;;;;;13.35;6.97;;;;;;;2.46;81.14;101891.53;5019969;28;20029;-22
2022/01/29 02:28:45;;;;;;;10.88;6.50;;;;;;;2.47;81.12;101893.31;5024159;28;20048;-21
2022/01/29 02:31:11;;;;;;;12.68;7.03;;;;;;;2.48;81.12;101884.66;5022487;28;20489;-22
2022/01/29 02:33:39;;;;;;;13.05;7.35;;;;;;;2.49;81.40;101882.13;5026010;28;20029;-22
2022/01/29 02:36:06;;;;;;;8.48;6.50;;;;;;;2.51;81.10;101884.81;5022729;28;20029;-21
2022/01/29 02:38:32;;;;;;;12.88;6.63;;;;;;;2.51;81.35;101874.38;5023467;28;20050;-26
2022/01/29 02:41:03;;;;;;;8.57;6.70;;;;;;;2.53;81.47;101877.94;5023121;28;20107;-22
2022/01/29 02:43:40;;;;;;;12.25;7.88;;;;;;;2.53;81.23;101870.13;5021636;28;20018;-21
2022/01/29 02:48:48;;;;;;;12.38;7.22;;;;;;;2.57;81.34;101859.03;5021834;28;20055;-23
2022/01/29 02:51:14;;;;;;;9.40;7.57;;;;;;;2.57;81.55;101848.63;5023247;28;20060;-23
2022/01/29 02:53:40;;;;;;;8.50;6.53;;;;;;;2.59;81.58;101841.75;5023205;28;20029;-21
2022/01/29 02:56:05;;;;;;;11.43;6.72;;;;;;;2.59;81.47;101836.53;5024681;28;20033;-23
2022/01/29 02:58:31;;;;;;;13.50;6.90;;;;;;;2.61;81.30;101824.47;5024003;28;20040;-22
2022/01/29 03:00:56;;;;;;;12.98;6.30;;;;;;;2.63;81.51;101821.94;5020489;28;20045;-23
2022/01/29 03:03:22;;;;;;;11.60;6.70;;;;;;;2.62;81.35;101810.63;5024353;28;20034;-22
2022/01/29 03:05:48;;;;;;;11.45;6.55;;;;;;;2.64;81.27;101802.88;5022466;28;20069;-22
2022/01/29 03:08:13;;;;;;;10.88;6.45;;;;;;;2.63;81.07;101801.97;5024971;28;20497;-21
2022/01/29 03:10:39;;;;;;;9.98;6.75;;;;;;;2.65;81.32;101784.72;5024466;28;20108;-26
2022/01/29 03:13:04;;;;;;;11.73;6.65;;;;;;;2.66;81.69;101782.97;5023418;28;20489;-22
2022/01/29 03:15:30;;;;;;;9.68;6.13;;;;;;;2.67;81.24;101793.47;5024840;28;20037;-22
2022/01/29 03:17:56;;;;;;;12.27;7.35;;;;;;;2.69;81.49;101791.81;5024683;28;20017;-25
2022/01/29 03:20:22;;;;;;;10.85;7.18;;;;;;;2.70;81.77;101784.88;5026096;28;20021;-25
2022/01/29 03:22:47;;;;;;;11.77;7.93;;;;;;;2.71;81.57;101768.44;5024238;28;20437;-21
2022/01/29 03:25:13;;;;;;;10.95;7.15;;;;;;;2.73;81.39;101766.75;5024539;28;21605;-25
2022/01/29 03:27:38;;;;;;;11.93;6.97;;;;;;;2.75;81.65;101769.44;5027561;28;20051;-21
2022/01/29 03:30:06;;;;;;;10.88;7.38;;;;;;;2.75;81.60;101765.13;5028820;28;20033;-23
2022/01/29 03:32:32;;;;;;;10.85;6.72;;;;;;;2.77;81.40;101757.38;5026213;28;20746;-22
2022/01/29 03:34:58;;;;;;;16.23;7.72;;;;;;;2.79;81.60;101755.69;5023776;28;20124;-22
2022/01/29 03:37:23;;;;;;;10.70;7.00;;;;;;;2.79;81.58;101751.41;5028377;28;20458;-21
2022/01/29 03:39:49;;;;;;;13.00;6.88;;;;;;;2.80;81.32;101741.88;5027568;28;20036;-23
2022/01/29 03:42:15;;;;;;;9.77;6.97;;;;;;;2.80;81.51;101732.31;5025845;28;20029;-23
2022/01/29 03:44:41;;;;;;;8.18;6.72;;;;;;;2.80;81.43;101724.50;5028216;28;20782;-22
2022/01/29 03:47:07;;;;;;;14.27;7.03;;;;;;;2.82;81.17;101708.94;5024809;28;20029;-22
2022/01/29 03:49:32;;;;;;;9.60;7.22;;;;;;;2.83;81.25;101705.50;5028982;28;20033;-25
2022/01/29 03:51:58;;;;;;;11.63;6.80;;;;;;;2.83;81.24;101710.69;5028782;28;20449;-23
2022/01/29 03:54:23;;;;;;;13.23;6.82;;;;;;;2.85;81.53;101706.47;5029376;28;20581;-22
2022/01/29 03:56:49;;;;;;;12.35;7.60;;;;;;;2.87;81.54;101696.97;5027995;28;20494;-22
2022/01/29 03:59:14;;;;;;;8.27;7.28;;;;;;;2.88;81.47;101692.66;5022176;28;20080;-22
2022/01/29 04:01:40;;;;;;;13.95;8.13;;;;;;;2.89;81.75;101684.91;5024898;28;20485;-23
2022/01/29 04:04:06;;;;;;;13.60;8.30;;;;;;;2.89;81.66;101684.91;5026684;28;20097;-22
2022/01/29 04:06:31;;;;;;;11.00;8.25;;;;;;;2.90;81.42;101676.25;5028950;28;20371;-22
2022/01/29 04:08:57;;;;;;;12.18;8.07;;;;;;;2.92;81.75;101669.38;5023906;28;20036;-22
2022/01/29 04:11:23;;;;;;;14.50;7.82;;;;;;;2.93;81.59;101671.16;5028600;28;20034;-22
2022/01/29 04:13:49;;;;;;;12.40;8.32;;;;;;;2.97;82.00;101660.84;5029607;28;20499;-21
2022/01/29 04:16:16;;;;;;;15.35;8.23;;;;;;;2.97;81.71;101660.84;5027584;28;20029;-22
2022/01/29 04:18:41;;;;;;;11.60;8.45;;;;;;;2.97;82.01;101653.94;5027025;28;20124;-21
2022/01/29 04:21:07;;;;;;;14.68;8.60;;;;;;;2.99;81.71;101649.66;5025340;28;20108;-22
2022/01/29 04:23:34;;;;;;;11.82;8.93;;;;;;;3.00;81.65;101651.41;5024573;28;20441;-22
2022/01/29 04:26:01;;;;;;;21.38;10.00;;;;;;;3.02;81.95;101641.06;5027872;28;20017;-23
2022/01/29 04:28:31;;;;;;;13.30;8.70;;;;;;;3.05;81.75;101638.56;5029382;28;20059;-23
2022/01/29 04:31:02;;;;;;;16.37;9.63;;;;;;;3.05;81.75;101641.16;5024442;28;20037;-22
2022/01/29 04:33:30;;;;;;;15.70;9.97;;;;;;;3.05;81.84;101646.38;5029129;28;20418;-22
2022/01/29 04:36:01;;;;;;;14.13;11.18;;;;;;;3.07;82.28;101631.72;5026103;28;20322;-22
2022/01/29 04:38:27;;;;;;;16.90;10.23;;;;;;;3.10;81.96;101636.13;5027723;28;20149;-22
2022/01/29 04:40:54;;;;;;;21.02;10.60;;;;;;;3.11;82.17;101628.38;5026608;28;20060;-22
2022/01/29 04:43:20;;;;;;;16.05;10.68;;;;;;;3.12;82.36;101611.00;5025131;28;20025;-21
2022/01/29 04:45:46;;;;;;;22.30;12.52;;;;;;;3.13;82.71;101624.09;5025716;28;20072;-22
2022/01/29 04:48:11;;;;;;;18.88;11.07;;;;;;;3.16;82.36;101621.59;5026095;28;20042;-23
2022/01/29 04:50:37;;;;;;;18.38;11.57;;;;;;;3.18;82.36;101606.03;5024148;28;20074;-27
2022/01/29 04:53:02;;;;;;;17.17;10.68;;;;;;;3.19;82.59;101606.06;5028683;28;20085;-22
2022/01/29 04:55:28;;;;;;;15.25;10.90;;;;;;;3.20;82.34;101602.63;5027158;28;20075;-23
2022/01/29 04:57:53;;;;;;;19.67;11.93;;;;;;;3.24;82.39;101613.19;5025054;28;21157;-23
2022/01/29 05:00:20;;;;;;;17.67;12.68;;;;;;;3.24;82.45;101597.53;5024788;28;20033;-22
2022/01/29 05:02:46;;;;;;;15.77;11.35;;;;;;;3.25;82.73;101597.59;5026337;28;20037;-23
2022/01/29 05:05:12;;;;;;;18.33;11.77;;;;;;;3.28;82.86;101602.03;5026550;28;20540;-22
2022/01/29 05:07:37;;;;;;;18.80;12.02;;;;;;;3.29;82.54;101599.47;5027313;28;20040;-22
2022/01/29 05:10:03;;;;;;;19.40;11.40;;;;;;;3.32;82.33;101585.66;5027918;28;20036;-21
2022/01/29 05:12:39;;;;;;;16.25;11.38;;;;;;;3.32;82.49;101583.03;5027399;28;20433;-21
2022/01/29 05:15:25;;;;;;;20.05;11.45;;;;;;;3.34;82.69;101576.19;5023653;28;20032;-26
2022/01/29 05:28:47;;;;;;;18.60;11.50;;;;;;;3.41;82.96;101548.59;5023462;28;20145;-23
2022/01/29 05:31:12;;;;;;;18.45;11.32;;;;;;;3.42;83.17;101539.91;5027268;28;20132;-21
2022/01/29 05:33:38;;;;;;;18.30;11.77;;;;;;;3.43;83.23;101532.16;5026900;28;20025;-21
2022/01/29 05:36:03;;;;;;;16.50;10.77;;;;;;;3.44;83.39;101531.31;5028549;28;20021;-22
2022/01/29 05:38:29;;;;;;;20.30;12.40;;;;;;;3.46;82.92;101521.81;5027162;28;20029;-22
2022/01/29 05:40:55;;;;;;;17.45;11.25;;;;;;;3.47;83.28;101525.34;5027758;28;20026;-21
2022/01/29 05:43:21;;;;;;;20.88;11.20;;;;;;;3.47;83.55;101520.13;5029101;28;20375;-21
2022/01/29 05:45:47;;;;;;;15.35;10.98;;;;;;;3.47;83.48;101505.34;5027631;28;20485;-22
2022/01/29 05:48:12;;;;;;;15.95;10.57;;;;;;;3.47;83.49;101510.56;5024909;28;20040;-21
2022/01/29 05:50:38;;;;;;;15.57;10.65;;;;;;;3.47;83.08;101502.72;5025408;28;20029;-23
2022/01/29 05:53:04;;;;;;;19.33;11.60;;;;;;;3.49;83.49;101496.66;5009476;28;20470;-27
2022/01/29 05:55:30;;;;;;;18.48;11.52;;;;;;;3.49;83.55;101491.44;5025588;28;20581;-21
2022/01/29 05:57:55;;;;;;;18.27;10.77;;;;;;;3.47;83.56;101483.59;5024488;28;20204;-21
2022/01/29 06:00:21;;;;;;;15.15;10.85;;;;;;;3.49;83.41;101484.53;5025810;28;20095;-22
2022/01/29 06:02:46;;;;;;;18.02;11.23;;;;;;;3.48;83.86;101472.31;5024524;28;20124;-22
2022/01/29 06:05:12;;;;;;;21.58;12.60;;;;;;;3.47;83.98;101461.00;5025878;28;20033;-22
2022/01/29 06:07:37;;;;;;;18.95;11.68;;;;;;;3.47;84.01;101479.25;5025674;28;20067;-21
2022/01/29 06:10:03;;;;;;;16.67;11.57;;;;;;;3.48;83.88;101467.09;5025715;28;20108;-26
2022/01/29 06:12:29;;;;;;;16.92;10.40;;;;;;;3.47;83.99;101447.94;5025487;28;20029;-24
2022/01/29 06:14:54;;;;;;;16.20;10.88;;;;;;;3.47;84.29;101457.53;5023125;28;20029;-21
2022/01/29 06:17:20;;;;;;;13.55;10.10;;;;;;;3.47;84.64;101444.47;5026935;28;20022;-21
2022/01/29 06:19:47;;;;;;;17.58;11.10;;;;;;;3.47;84.69;101428.84;5024733;28;20507;-24
2022/01/29 06:22:14;;;;;;;17.02;11.32;;;;;;;3.47;84.95;101440.13;5026594;28;20038;-22
2022/01/29 06:24:41;;;;;;;16.90;10.68;;;;;;;3.46;84.58;101424.44;5023607;28;20404;-22
2022/01/29 06:27:07;;;;;;;15.07;9.88;;;;;;;3.46;84.53;101427.94;5026906;28;21253;-22
2022/01/29 06:29:32;;;;;;;15.10;10.52;;;;;;;3.46;84.47;101424.44;5022474;28;20036;-23
2022/01/29 06:31:58;;;;;;;22.23;12.05;;;;;;;3.47;84.47;101410.56;5022604;28;20021;-21
2022/01/29 06:34:23;;;;;;;18.13;11.45;;;;;;;3.45;84.78;101410.53;5025615;28;20052;-21
2022/01/29 06:36:49;;;;;;;14.95;10.48;;;;;;;3.45;85.15;101417.44;5026199;28;20087;-21
2022/01/29 06:39:14;;;;;;;15.88;11.35;;;;;;;3.46;84.91;101427.03;5026237;28;20477;-21
2022/01/29 06:41:40;;;;;;;16.30;10.98;;;;;;;3.47;85.04;101427.09;5023255;28;20065;-22
2022/01/29 06:44:05;;;;;;;19.02;11.27;;;;;;;3.45;85.12;101401.78;5029289;28;21751;-22
2022/01/29 06:46:31;;;;;;;15.25;10.30;;;;;;;3.46;85.25;101390.53;5026426;28;20028;-21
2022/01/29 06:48:56;;;;;;;18.00;11.27;;;;;;;3.47;85.11;101380.13;5026533;28;20488;-23
2022/01/29 06:51:22;;;;;;;15.80;10.95;;;;;;;3.47;84.95;101387.09;5026699;28;20104;-24
2022/01/29 06:53:47;;;;;;;19.77;11.23;;;;;;;3.47;84.82;101385.34;5027809;28;20025;-24
2022/01/29 06:56:13;;;;;;;17.92;11.63;;;;;;;3.47;85.13;101390.56;5025823;28;20025;-24
2022/01/29 06:58:38;;;;;;;16.42;11.23;;;;;;;3.47;85.13;101387.97;5025517;28;20025;-24
2022/01/29 07:01:04;;;;;;;15.55;11.13;;;;;;;3.48;85.38;101391.47;5024898;28;20060;-22
2022/01/29 07:03:29;;;;;;;16.83;11.23;;;;;;;3.49;85.06;101387.13;5024069;28;20048;-24
2022/01/29 07:05:55;;;;;;;16.73;11.05;;;;;;;3.50;85.45;101386.31;5022251;28;20037;-24
2022/01/29 07:08:20;;;;;;;20.15;11.48;;;;;;;3.47;85.67;101380.13;5025599;28;20036;-24
2022/01/29 07:10:48;;;;;;;19.95;11.77;;;;;;;3.50;85.60;101386.31;5025364;28;20107;-24
2022/01/29 07:13:14;;;;;;;15.68;11.10;;;;;;;3.51;85.37;101388.06;5025661;28;20022;-24
2022/01/29 07:15:39;;;;;;;17.95;12.38;;;;;;;3.52;85.50;101368.97;5023578;28;20496;-22
2022/01/29 07:18:05;;;;;;;17.75;11.35;;;;;;;3.52;85.76;101379.41;5023012;28;20029;-23
2022/01/29 07:20:31;;;;;;;19.25;12.82;;;;;;;3.53;85.72;101381.19;5022650;28;20035;-22
2022/01/29 07:22:56;;;;;;;17.73;12.05;;;;;;;3.53;85.67;101381.19;5025699;28;20515;-24
2022/01/29 07:25:22;;;;;;;20.30;13.40;;;;;;;3.55;85.96;101400.38;5023781;28;20524;-24
2022/01/29 07:27:47;;;;;;;20.15;12.02;;;;;;;3.54;85.61;101373.38;5025069;28;20405;-24
2022/01/29 07:30:13;;;;;;;24.30;13.00;;;;;;;3.56;85.67;101386.47;5024101;28;20029;-24
2022/01/29 07:32:43;;;;;;;17.23;11.23;;;;;;;3.57;85.81;101377.84;5020363;28;20030;-25
2022/01/29 07:35:08;;;;;;;19.17;11.25;;;;;;;3.56;85.58;101371.72;5023073;28;20436;-22
2022/01/29 07:37:34;;;;;;;20.98;11.65;;;;;;;3.58;85.59;101382.22;5023954;28;20029;-23
2022/01/29 07:39:59;;;;;;;17.58;11.75;;;;;;;3.59;86.38;101374.44;5026147;28;20061;-25
2022/01/29 07:42:25;;;;;;;18.10;11.18;;;;;;;3.59;85.84;101364.00;5025907;28;20029;-24
2022/01/29 07:44:50;;;;;;;18.63;11.27;;;;;;;3.60;86.00;101359.63;5023720;28;20057;-24
2022/01/29 07:47:16;;;;;;;18.70;11.35;;;;;;;3.61;86.04;101366.66;5025025;28;20049;-23
2022/01/29 07:49:42;;;;;;;19.77;12.40;;;;;;;3.64;85.89;101352.81;5017162;28;20057;-24
2022/01/29 07:52:07;;;;;;;15.60;11.20;;;;;;;3.63;85.39;101341.47;5023448;28;20025;-24
2022/01/29 07:54:33;;;;;;;14.95;10.95;;;;;;;3.64;86.17;101343.28;5022906;28;20021;-24
2022/01/29 07:56:59;;;;;;;20.58;11.25;;;;;;;3.66;86.24;101335.47;5021991;28;20026;-24
2022/01/29 07:59:24;;;;;;;18.45;10.88;;;;;;;3.66;85.80;101320.72;5025065;28;20563;-24
2022/01/29 08:01:50;;;;;;;18.38;11.80;;;;;;;3.67;85.94;101325.06;5024749;28;20021;-24
2022/01/29 08:04:15;;;;;;;21.38;11.57;;;;;;;3.67;85.69;101330.28;5024258;28;20084;-24
2022/01/29 08:06:41;;;;;;;18.63;11.80;;;;;;;3.69;86.22;101320.81;5023805;28;20029;-24
2022/01/29 08:09:08;;;;;;;19.10;11.45;;;;;;;3.71;86.16;101321.72;5026292;28;20116;-24
2022/01/29 08:11:34;;;;;;;16.05;10.55;;;;;;;3.71;86.13;101313.88;5024371;28;20025;-24
2022/01/29 08:13:59;;;;;;;19.50;10.85;;;;;;;3.73;86.04;101308.72;5027840;28;20034;-24
2022/01/29 08:16:25;;;;;;;17.42;10.93;;;;;;;3.75;86.35;101303.56;5025026;28;20059;-24
2022/01/29 08:18:50;;;;;;;16.00;10.30;;;;;;;3.76;86.68;101305.34;5023806;28;20032;-24
2022/01/29 08:21:16;;;;;;;19.55;10.95;;;;;;;3.76;86.51;101316.66;5021954;28;20104;-22
2022/01/29 08:23:42;;;;;;;17.55;10.18;;;;;;;3.78;86.57;101314.97;5027834;28;20030;-23
2022/01/29 08:26:09;;;;;;;17.25;10.75;;;;;;;3.79;86.69;101308.91;5027654;28;20392;-23
2022/01/29 08:28:34;;;;;;;19.02;11.20;;;;;;;3.82;86.92;101315.94;5024308;28;20021;-24
2022/01/29 08:31:00;;;;;;;19.48;10.70;;;;;;;3.82;86.25;101305.50;5026216;28;20033;-24
2022/01/29 08:33:25;;;;;;;16.00;10.57;;;;;;;3.82;86.48;101287.22;5026430;28;20018;-24
2022/01/29 08:35:52;;;;;;;16.70;10.27;;;;;;;3.84;86.66;101306.44;5024758;28;20247;-24
2022/01/29 08:38:18;;;;;;;16.48;11.13;;;;;;;3.88;86.89;101320.44;5025769;28;20029;-22
2022/01/29 08:40:43;;;;;;;15.02;10.00;;;;;;;3.89;87.29;101301.34;5024985;28;20032;-24
2022/01/29 08:43:09;;;;;;;16.92;10.90;;;;;;;3.89;86.75;101297.00;5019735;28;20038;-23
2022/01/29 08:45:35;;;;;;;16.58;10.63;;;;;;;3.91;86.94;101299.66;5023348;28;20038;-24
2022/01/29 08:48:00;;;;;;;15.23;10.10;;;;;;;3.93;86.73;101287.53;5005693;28;20026;-22
2022/01/29 08:50:26;;;;;;;15.25;10.63;;;;;;;3.94;86.60;101294.53;5025610;28;20030;-24
2022/01/29 08:52:52;;;;;;;17.70;9.93;;;;;;;3.95;86.63;101302.41;5026240;28;20024;-24
2022/01/29 08:55:17;;;;;;;14.90;10.30;;;;;;;3.97;86.67;101285.06;5023659;28;20033;-21
2022/01/29 08:57:43;;;;;;;14.80;10.32;;;;;;;3.98;86.56;101289.44;5026483;28;20017;-23
2022/01/29 09:00:10;;;;;;;15.10;10.20;;;;;;;4.00;87.12;101289.47;5027785;28;20499;-24
2022/01/29 09:02:36;;;;;;;15.63;9.80;;;;;;;4.01;86.67;101274.72;5029447;28;20033;-24
2022/01/29 09:05:02;;;;;;;16.67;9.85;;;;;;;4.03;86.92;101280.88;5028897;28;20032;-22
2022/01/29 09:07:28;;;;;;;16.90;9.68;;;;;;;4.05;87.09;101271.34;5026429;28;20032;-24
2022/01/29 09:09:54;;;;;;;15.13;10.40;;;;;;;4.06;87.09;101257.44;5028386;28;20029;-24
2022/01/29 09:12:20;;;;;;;14.18;9.30;;;;;;;4.07;86.41;101256.63;5026875;28;20030;-23
2022/01/29 09:14:46;;;;;;;15.73;9.88;;;;;;;4.08;86.79;101251.44;5023795;28;20028;-23
2022/01/29 09:17:11;;;;;;;13.70;9.35;;;;;;;4.12;86.78;101262.84;5021910;28;20037;-24
2022/01/29 09:19:37;;;;;;;13.90;9.27;;;;;;;4.13;86.49;101259.38;5028759;28;20108;-24
2022/01/29 09:22:03;;;;;;;13.48;8.38;;;;;;;4.15;86.95;101257.69;5023879;28;20037;-24
2022/01/29 09:24:29;;;;;;;13.55;8.93;;;;;;;4.14;86.45;101248.09;5020866;28;20605;-24
2022/01/29 09:26:54;;;;;;;16.15;9.23;;;;;;;4.19;86.78;101253.44;5024139;28;20039;-23
2022/01/29 09:29:20;;;;;;;14.18;8.45;;;;;;;4.21;86.55;101256.97;5024685;28;20048;-24
2022/01/29 09:31:45;;;;;;;12.35;7.97;;;;;;;4.21;87.12;101250.00;5023869;28;20036;-23
2022/01/29 09:34:11;;;;;;;15.10;9.27;;;;;;;4.24;87.40;101257.06;5021482;28;20108;-24
2022/01/29 09:36:36;;;;;;;12.00;8.73;;;;;;;4.26;87.36;101264.94;5020740;28;20033;-22
2022/01/29 09:39:02;;;;;;;14.27;8.27;;;;;;;4.27;87.52;101262.34;5019405;28;20029;-24
2022/01/29 09:41:28;;;;;;;12.07;8.10;;;;;;;4.30;87.10;101253.72;5021429;28;20040;-24
2022/01/29 09:43:56;;;;;;;14.93;8.02;;;;;;;4.32;87.39;101242.47;5020309;28;20029;-24
2022/01/29 09:46:27;;;;;;;11.63;7.70;;;;;;;4.33;87.09;101251.16;5023634;28;20029;-23
2022/01/29 09:48:54;;;;;;;12.50;7.90;;;;;;;4.36;87.06;101254.78;5013940;28;20057;-24
2022/01/29 09:51:19;;;;;;;14.32;8.43;;;;;;;4.37;86.97;101253.06;5026500;28;20037;-24
2022/01/29 09:53:45;;;;;;;11.90;7.72;;;;;;;4.42;87.72;101245.31;5027550;28;20048;-23
2022/01/29 09:56:12;;;;;;;11.77;7.97;;;;;;;4.42;87.40;101235.75;5027289;28;20029;-24
2022/01/29 09:58:37;;;;;;;10.30;7.28;;;;;;;4.44;87.55;101230.56;5024781;28;20398;-23
2022/01/29 10:01:03;;;;;;;12.95;7.82;;;;;;;4.48;86.76;101241.16;5027220;28;20029;-23
2022/01/29 10:03:29;;;;;;;11.35;7.50;;;;;;;4.48;87.20;101228.09;5025154;28;20038;-24
2022/01/29 10:05:56;;;;;;;11.20;7.82;;;;;;;4.54;87.74;101223.84;5022070;28;20029;-24
2022/01/29 10:08:23;;;;;;;10.63;7.50;;;;;;;4.57;88.05;101216.97;5021607;28;20379;-23
2022/01/29 10:10:55;;;;;;;9.55;7.35;;;;;;;4.58;87.41;101210.00;5021876;28;20108;-24
2022/01/29 10:13:34;;;;;;;8.43;6.80;;;;;;;4.61;87.64;101221.41;5022858;28;20497;-21
2022/01/29 10:16:26;;;;;;;11.30;7.50;;;;;;;4.64;87.64;101215.41;5024647;28;20037;-24
2022/01/29 10:19:01;;;;;;;11.88;7.50;;;;;;;4.66;87.47;101213.69;5021309;28;20402;-21
2022/01/29 10:21:29;;;;;;;8.45;6.55;;;;;;;4.68;87.36;101201.56;5020645;28;20041;-23
2022/01/29 10:24:07;;;;;;;9.00;6.47;;;;;;;4.72;88.07;101195.56;5021832;28;20405;-24
2022/01/29 10:26:38;;;;;;;8.93;6.72;;;;;;;4.78;87.59;101191.31;5026451;28;20549;-24
2022/01/29 10:29:07;;;;;;;11.13;6.85;;;;;;;4.78;87.41;101186.97;5022856;28;20025;-23
2022/01/29 10:31:44;;;;;;;9.50;7.10;;;;;;;4.82;87.69;101190.53;5025247;28;20076;-23
2022/01/29 10:34:26;;;;;;;8.82;5.60;;;;;;;4.84;87.80;101173.16;5026554;28;20079;-24
2022/01/29 10:37:14;;;;;;;9.60;6.15;;;;;;;4.88;87.21;101175.00;5024292;28;20033;-24
2022/01/29 10:39:40;;;;;;;7.32;6.05;;;;;;;4.92;87.44;101173.31;5023375;28;20052;-22
2022/01/29 10:42:17;;;;;;;9.27;6.28;;;;;;;4.96;87.60;101165.59;5023426;28;20029;-23
2022/01/29 10:44:45;;;;;;;10.02;5.90;;;;;;;4.99;87.44;101164.75;5024566;28;20033;-24
2022/01/29 10:47:11;;;;;;;7.15;5.82;;;;;;;5.00;87.47;101162.19;5026004;28;20420;-23
2022/01/29 10:49:44;;;;;;;11.23;6.78;;;;;;;5.04;87.64;101157.03;5024720;28;20045;-24
2022/01/29 10:52:11;;;;;;;7.97;5.75;;;;;;;5.06;87.18;101139.63;5026875;28;20034;-24
2022/01/29 10:54:42;;;;;;;8.10;5.80;;;;;;;5.08;87.35;101127.47;5022644;28;20033;-24
2022/01/29 10:57:14;;;;;;;7.88;5.10;;;;;;;5.11;87.08;101128.41;5021444;28;20040;-24
2022/01/29 10:59:51;;;;;;;7.78;5.85;;;;;;;5.13;87.24;101116.28;5021143;28;20071;-24
2022/01/29 11:02:19;;;;;;;5.88;4.80;;;;;;;5.19;87.30;101109.38;5025939;28;20032;-21
2022/01/29 11:04:45;;;;;;;6.50;5.45;;;;;;;5.21;87.55;101108.59;5019441;28;20021;-23
2022/01/29 11:07:20;;;;;;;7.32;5.65;;;;;;;5.24;87.31;101099.91;5022596;28;20422;-22
2022/01/29 11:09:47;;;;;;;7.13;5.53;;;;;;;5.28;87.61;101079.94;5024190;28;20026;-23
2022/01/29 11:12:19;;;;;;;8.75;6.63;;;;;;;5.31;86.97;101087.84;5022292;28;20060;-24
2022/01/29 11:14:45;;;;;;;6.85;5.28;;;;;;;5.32;87.32;101068.66;5020996;28;20040;-24
2022/01/29 11:17:11;;;;;;;7.45;5.22;;;;;;;5.36;87.41;101067.88;5022765;28;20389;-23
2022/01/29 11:19:38;;;;;;;7.10;4.60;;;;;;;5.38;86.97;101055.72;5023937;28;20033;-24
2022/01/29 11:22:06;;;;;;;5.18;4.55;;;;;;;5.43;86.86;101045.34;5022948;28;20677;-24
2022/01/29 11:24:33;;;;;;;6.03;5.00;;;;;;;5.46;87.18;101051.50;5021430;28;20108;-23
2022/01/29 11:26:58;;;;;;;5.50;4.90;;;;;;;5.49;87.00;101043.72;5023817;28;20036;-23
2022/01/29 11:29:29;;;;;;;5.47;4.32;;;;;;;5.52;86.98;101033.31;5026019;28;20033;-24
2022/01/29 11:32:22;;;;;;;7.82;4.43;;;;;;;5.57;86.75;101042.97;5022217;28;20022;-24
2022/01/29 11:35:07;;;;;;;6.65;4.40;;;;;;;5.61;86.62;101039.56;5025054;28;20506;-24
2022/01/29 11:37:51;;;;;;;4.65;4.20;;;;;;;5.65;86.67;101042.25;5021404;28;20033;-25